Exeter, Pennsylvania
Current Conditions -  °F | °C
As of 1:54 AM on Saturday 29 Nov 2014 (Local Time) from KAVP Reporting Station
Clear Clear  
Wind Chill: -15°   Ceiling: Unl
Heat Index: -10°   Visibility: 10mi
Dew Point: -13°   Wind: 6mph
Humidity: 80%   Direction: 190°S
Pressure: 30.24"   Gusts: NA
Location:  41.3688°N, 75.837°W
Report Text: KAVP 290654Z 19005KT 10SM CLR M10/M13 A3024 RMK AO2 SLP252 T11001128
Loading
Personal Weather Stations






























Interactive Weather Map New forecast layout! Learn more

10-Day Weather Forecast

Advertisements
Track Severe Weather on mobile